Frederika, IA

5:00 AM CDT on August 29, 2016 (GMT -0500)
Wartburg College Observatory | | Change Station

Elev 928 ft 42.73 °N, 92.49 °W | Updated 6 seconds ago

Overcast
Overcast
68.3 °F
Feels Like 68.3 °F
N
4.6
Wind Variable Wind from SE
Gusts 4.6 mph

Today
High -- | Low -- °F
--% Chance of Precip.
Yesterday
High -- | Low -- °F
Precip. -- in
Pressure 30.21 in
Visibility 10.0 miles
Clouds Mostly Cloudy 14000 ft
Overcast 16000 ft
Dew Point 67 °F
Humidity 96%
Rainfall 0.00 in
Snow Depth Not available.
6:31 AM 7:47 PM
Waning Crescent, 9% visible
METAR KOLZ 290955Z AUTO 12005KT 10SM BKN140 OVC160 19/18 A3021 RMK AO2
Pressure 30.21 in
Visibility 10.0 miles
Clouds Mostly Cloudy 14000 ft
Overcast 16000 ft
Dew Point 67 °F
Humidity 96%
Rainfall 0.00 in
Snow Depth Not available.
6:31 AM 7:47 PM
Waning Crescent, 9% visible
METAR KOLZ 290955Z AUTO 12005KT 10SM BKN140 OVC160 19/18 A3021 RMK AO2

10-Day Weather Forecast

Almanac

Astronomy

Aug. 29, 2016 Rise Set
Actual Time
Civil Twilight
Nautical Twilight
Astronomical Twilight
Moon
Length of Visible Light
Length of Day
Tomorrow will be .
, % of the Moon is Illuminated

Today's Extremes

State Highs State Lows

Community

WunderPhotos

Upload Photos

1,935,798 photos uploaded!

WunderBlog® & News

Nearby

Air Quality

  Air Quality AQ Index Pollutant
Not available.

Snow Depth

Station Depth Elevation

Earthquake Activity

City Distance Mag. Time & Date
Minimum magnitude displayed is 2.5.

Coastal Water Temperatures

Place Temperature

Stations

Nearby Weather Stations

Station Location Temp. Windchill Dew Point Humidity Wind Precip. Elev Updated Type
                   

Watches & Warnings

There are currently no watches in effect.